Flight Track Log - Related Links

Times and Time Zones

All times are in EDT time to prevent confusion due to time zone crossing. See the N654DL flight status page for this flight to view local times or setup timezone preferences in your user account.


Time Position Orientation Groundspeed Altitude Reporting Facility
EDT Latitude Longitude Course Direction KTS MPH feet Rate Location/Type
Sun 11:10:27 AM 33.6447 -117.8856 90° East 163 188 1,800  Level Los Angeles Center
Sun 11:11:29 AM 33.5986 -117.8939 189° South 165 190 3,600 1,561 Climbing Los Angeles Center
Sun 11:12:00 AM 33.5091 -117.6126 54° Northeast  Level FlightAware Approximate
Sun 11:12:30 AM 33.5439 -117.8722 162° South 226 260 5,000  Level Los Angeles Center
Sun 11:13:00 AM 33.5658 -117.4690 66° East  Level FlightAware Approximate
Sun 11:13:32 AM 33.5472 -117.7819 87° East 270 311 7,700  Level Los Angeles Center
Sun 11:14:00 AM 33.5833 -117.3137 90° East  Level FlightAware Approximate
Sun 11:14:33 AM 33.5594 -117.6881 81° East 282 325 10,300  Level Los Angeles Center
Sun 11:15:00 AM 33.5834 -117.1544 90° East  Level FlightAware Approximate
Sun 11:15:35 AM 33.5758 -117.5525 82° East 341 392 11,600  Level Los Angeles Center
Sun 11:16:36 AM 33.5564 -117.4272 101° East 392 451 13,800 2,146 Climbing Los Angeles Center
Sun 11:17:38 AM 33.5092 -117.3056 115° Southeast 403 464 16,000 1,984 Climbing Los Angeles Center
Sun 11:18:40 AM 33.5125 -117.1658 88° East 423 487 17,900 1,902 Climbing Los Angeles Center
Sun 11:19:41 AM 33.5297 -117.0256 82° East 430 495 19,900 1,805 Climbing Los Angeles Center
Sun 11:20:43 AM 33.5453 -116.8789 83° East 436 502 21,600 1,659 Climbing Los Angeles Center
Sun 11:21:44 AM 33.5636 -116.7272 82° East 449 517 23,300 1,756 Climbing Los Angeles Center
Sun 11:22:46 AM 33.5853 -116.5422 82° East 458 527 25,200 1,452 Climbing Los Angeles Center
Sun 11:23:48 AM 33.6039 -116.3828 82° East 472 543 26,300 1,122 Climbing Los Angeles Center
Sun 11:24:49 AM 33.6228 -116.2189 82° East 487 560 27,500 1,171 Climbing Los Angeles Center
Sun 11:25:51 AM 33.6417 -116.0500 82° East 504 580 28,700 1,268 Climbing Los Angeles Center
Sun 11:26:52 AM 33.6611 -115.8844 82° East 503 579 30,100 1,366 Climbing Los Angeles Center
Sun 11:27:54 AM 33.6814 -115.7200 82° East 501 577 31,500 1,306 Climbing Los Angeles Center
Sun 11:28:56 AM 33.7042 -115.5553 81° East 500 575 32,800 1,220 Climbing Los Angeles Center
Sun 11:29:57 AM 33.7311 -115.3931 79° East 495 570 34,000 1,073 Climbing Los Angeles Center
Sun 11:30:59 AM 33.7575 -115.2311 79° East 495 570 35,000 871 Climbing Los Angeles Center
Sun 11:32:01 AM 33.7919 -115.0350 78° East 500 575 35,800 774 Climbing Los Angeles Center
Sun 11:33:03 AM 33.8172 -114.8700 80° East 503 579 36,600 585 Climbing Los Angeles Center
Sun 11:34:04 AM 33.8439 -114.7067 79° East 500 575 37,000 195 Climbing Los Angeles Center
Sun 11:35:06 AM 33.8711 -114.5428 79° East 499 574 37,000  Level Los Angeles Center
Sun 11:36:08 AM 33.8981 -114.3792 79° East 498 573 37,000  Level Los Angeles Center
Sun 11:37:09 AM 33.9244 -114.2150 79° East 501 577 37,000  Level Los Angeles Center
Sun 11:38:11 AM 33.9497 -114.0492 80° East 503 579 37,000  Level Los Angeles Center
Sun 11:39:15 AM 33.9783 -113.8753 79° East 505 581 37,000  Level Albuquerque Center
Sun 11:40:16 AM 34.0069 -113.6756 80° East 504 580 37,000  Level Albuquerque Center
Sun 11:41:18 AM 34.0325 -113.5086 79° East 507 583 37,000  Level Albuquerque Center
Sun 11:42:20 AM 34.0581 -113.3414 80° East 509 586 37,000  Level Albuquerque Center
Sun 11:43:21 AM 34.0836 -113.1733 80° East 509 586 37,000  Level Albuquerque Center
Sun 11:44:23 AM 34.1078 -113.0064 80° East 507 583 37,000  Level Albuquerque Center
Sun 11:45:24 AM 34.1314 -112.8403 80° East 505 581 37,000  Level Albuquerque Center
Sun 11:46:26 AM 34.1561 -112.6719 80° East 507 583 37,000  Level Albuquerque Center
Sun 11:47:28 AM 34.1792 -112.5061 80° East 502 578 37,000  Level Albuquerque Center
Sun 11:48:29 AM 34.2086 -112.3058 80° East 504 580 37,000  Level Albuquerque Center
Sun 11:49:31 AM 34.2322 -112.1383 80° East 503 579 37,000  Level Albuquerque Center
Sun 11:50:32 AM 34.2550 -111.9711 81° East 501 577 37,000  Level Albuquerque Center
Sun 11:51:34 AM 34.2775 -111.8036 81° East 500 575 37,000  Level Albuquerque Center
Sun 11:52:36 AM 34.3006 -111.6369 80° East 498 573 37,000  Level Albuquerque Center
Sun 11:53:37 AM 34.3236 -111.4708 80° East 498 573 37,000  Level Albuquerque Center
Sun 11:54:39 AM 34.3450 -111.3056 81° East 496 571 37,000  Level Albuquerque Center
Sun 11:55:41 AM 34.3667 -111.1417 81° East 494 568 37,000  Level Albuquerque Center
Sun 11:56:42 AM 34.3883 -110.9775 81° East 494 568 37,000  Level Albuquerque Center
Sun 11:57:44 AM 34.4081 -110.8147 82° East 491 565 37,000  Level Albuquerque Center
Sun 11:58:46 AM 34.4344 -110.6200 81° East 490 564 37,000  Level Albuquerque Center
Sun 11:59:47 AM 34.4553 -110.4578 81° East 488 562 37,000  Level Albuquerque Center
Sun 12:00:49 PM 34.4731 -110.3006 82° East 493 567 37,000  Level Albuquerque Center
Sun 12:01:51 PM 34.4956 -110.1189 81° East 490 564 37,000  Level Albuquerque Center
Sun 12:02:52 PM 34.5147 -109.9617 82° East 491 565 37,000  Level Albuquerque Center
Sun 12:03:54 PM 34.5369 -109.7783 82° East 492 566 37,000  Level Albuquerque Center
Sun 12:04:56 PM 34.5556 -109.6203 82° East 494 568 37,000  Level Albuquerque Center
Sun 12:05:58 PM 34.5775 -109.4347 82° East 498 573 37,000  Level Albuquerque Center
Sun 12:07:00 PM 34.5956 -109.2767 82° East 496 571 37,000  Level Albuquerque Center
Sun 12:08:01 PM 34.6169 -109.0903 82° East 499 574 37,000  Level Albuquerque Center
Sun 12:09:03 PM 34.6344 -108.9308 82° East 500 575 37,000  Level Albuquerque Center
Sun 12:10:05 PM 34.6525 -108.7700 82° East 501 577 37,000  Level Albuquerque Center
Sun 12:11:07 PM 34.6736 -108.5800 82° East 507 583 37,000  Level Albuquerque Center
Sun 12:12:08 PM 34.6922 -108.4161 82° East 505 581 37,000  Level Albuquerque Center
Sun 12:13:10 PM 34.7100 -108.2472 83° East 505 581 37,000  Level Albuquerque Center
Sun 12:14:12 PM 34.7272 -108.0775 83° East 506 582 37,000  Level Albuquerque Center
Sun 12:15:14 PM 34.7447 -107.9075 83° East 507 583 37,000  Level Albuquerque Center
Sun 12:16:16 PM 34.7650 -107.7050 83° East 506 582 37,000  Level Albuquerque Center
Sun 12:17:18 PM 34.7831 -107.5361 83° East 504 580 37,000  Level Albuquerque Center
Sun 12:18:19 PM 34.7986 -107.3650 84° East 508 585 37,000  Level Albuquerque Center
Sun 12:19:21 PM 34.8150 -107.1956 83° East 510 587 37,000  Level Albuquerque Center
Sun 12:20:23 PM 34.8308 -107.0253 83° East 511 588 37,000  Level Albuquerque Center
Sun 12:21:25 PM 34.8506 -106.8447 82° East 513 590 37,000  Level Albuquerque Center
Sun 12:22:27 PM 34.8650 -106.6567 85° East 502 578 37,000  Level Albuquerque Center
Sun 12:23:29 PM 34.8814 -106.4819 83° East 518 596 37,000  Level Albuquerque Center
Sun 12:24:31 PM 34.8961 -106.3108 84° East 514 592 37,000  Level Albuquerque Center
Sun 12:25:33 PM 34.9106 -106.1403 84° East 511 588 37,000  Level Albuquerque Center
Sun 12:26:35 PM 34.9253 -105.9694 84° East 510 587 37,000  Level Albuquerque Center
Sun 12:27:37 PM 34.9442 -105.7625 84° East 509 586 37,000  Level Albuquerque Center
Sun 12:28:39 PM 34.9578 -105.5892 84° East 510 587 37,000  Level Albuquerque Center
Sun 12:29:41 PM 34.9722 -105.4156 84° East 510 587 37,000  Level Albuquerque Center
Sun 12:30:43 PM 34.9869 -105.2419 84° East 512 589 37,000  Level Albuquerque Center
Sun 12:31:45 PM 35.0008 -105.0669 84° East 514 592 37,000  Level Albuquerque Center
Sun 12:32:47 PM 35.0139 -104.8922 85° East 516 594 37,000  Level Albuquerque Center
Sun 12:33:49 PM 35.0306 -104.6864 84° East 520 598 37,000  Level Albuquerque Center
Sun 12:34:51 PM 35.0439 -104.5119 85° East 516 594 37,000  Level Albuquerque Center
Sun 12:35:53 PM 35.0569 -104.3358 85° East 520 598 37,000  Level Albuquerque Center
Sun 12:36:55 PM 35.0706 -104.1492 85° East 522 601 37,000  Level Albuquerque Center
Sun 12:37:57 PM 35.0856 -103.9739 84° East 523 602 37,000  Level Albuquerque Center
Sun 12:38:59 PM 35.0964 -103.7806 86° East 522 601 37,000  Level Albuquerque Center
Sun 12:40:01 PM 35.1092 -103.6033 85° East 522 601 37,000  Level Albuquerque Center
Sun 12:41:03 PM 35.1203 -103.4267 86° East 521 600 37,000  Level Albuquerque Center
Sun 12:42:05 PM 35.1322 -103.2478 85° East 524 603 37,000  Level Albuquerque Center
Sun 12:43:07 PM 35.1439 -103.0703 85° East 521 600 37,000  Level Albuquerque Center
Sun 12:44:09 PM 35.1544 -102.8819 86° East 522 601 37,000  Level Albuquerque Center
Sun 12:45:11 PM 35.1647 -102.7047 86° East 523 602 37,000  Level Albuquerque Center
Sun 12:46:13 PM 35.1744 -102.5283 86° East 522 601 37,000  Level Albuquerque Center
Sun 12:47:15 PM 35.1844 -102.3517 86° East 522 601 37,000  Level Albuquerque Center
Sun 12:48:17 PM 35.1967 -102.1403 86° East 522 601 37,000  Level Albuquerque Center
Sun 12:49:19 PM 35.2050 -101.9694 87° East 524 603 37,000  Level Albuquerque Center
Sun 12:50:21 PM 35.2164 -101.7914 85° East 523 602 37,000  Level Albuquerque Center
Sun 12:51:23 PM 35.2269 -101.6094 86° East 524 603 37,000  Level Albuquerque Center
Sun 12:52:25 PM 35.2364 -101.4311 86° East 525 604 37,000  Level Albuquerque Center
Sun 12:53:27 PM 35.2439 -101.2331 87° East 526 605 37,000  Level Albuquerque Center
Sun 12:54:29 PM 35.2519 -101.0544 87° East 527 606 37,000  Level Albuquerque Center
Sun 12:55:32 PM 35.2608 -100.8761 86° East 527 606 37,000  Level Albuquerque Center
Sun 12:56:34 PM 35.2681 -100.6969 87° East 529 609 37,000  Level Albuquerque Center
Sun 12:57:36 PM 35.2772 -100.4981 87° East 529 609 37,000  Level Albuquerque Center
Sun 12:58:38 PM 35.2839 -100.3169 87° East 532 612 37,000  Level Albuquerque Center
Sun 12:59:40 PM 35.2914 -100.1375 87° East 530 610 37,000  Level Albuquerque Center
Sun 01:00:42 PM 35.2978 -99.9208 88° East 530 610 37,000  Level Albuquerque Center
Sun 01:01:44 PM 35.3053 -99.7403 87° East 532 612 37,000  Level Albuquerque Center
Sun 01:02:46 PM 35.3108 -99.5622 88° East 527 606 37,000  Level Albuquerque Center
Sun 01:03:48 PM 35.3161 -99.3819 88° East 530 610 37,000  Level Albuquerque Center
Sun 01:04:31 PM 35.3200 -99.2378 88° East 531 611 37,000  Level Fort Worth Center
Sun 01:05:30 PM 35.3244 -99.0597 88° East 531 611 37,000  Level Fort Worth Center
Sun 01:06:30 PM 35.3289 -98.8792 88° East 531 611 37,000  Level Fort Worth Center
Sun 01:07:30 PM 35.3350 -98.6986 88° East 531 611 37,000  Level Fort Worth Center
Sun 01:08:30 PM 35.3386 -98.5231 89° East 525 604 37,000  Level Fort Worth Center
Sun 01:09:30 PM 35.3442 -98.3553 88° East 508 585 37,000  Level Fort Worth Center
Sun 01:10:30 PM 35.3475 -98.1797 89° East 508 585 37,000  Level Fort Worth Center
Sun 01:11:30 PM 35.3506 -98.0042 89° East 508 585 37,000  Level Fort Worth Center
Sun 01:12:30 PM 35.3533 -97.8283 89° East 513 590 37,000  Level Fort Worth Center
Sun 01:13:30 PM 35.3558 -97.6528 89° East 513 590 37,000  Level Fort Worth Center
Sun 01:14:30 PM 35.3561 -97.4669 90° East 519 597 37,000  Level Fort Worth Center
Sun 01:15:30 PM 35.3542 -97.2889 91° East 526 605 37,000 347 Level Fort Worth Center
Sun 01:16:31 PM 35.3475 -97.1233 93° East 538 619 37,700 900 Climbing Fort Worth Center
Sun 01:17:30 PM 35.3450 -96.9503 91° East 528 608 38,800 655 Climbing Fort Worth Center
Sun 01:18:30 PM 35.3422 -96.7825 91° East 507 583 39,000 100 Climbing Fort Worth Center
Sun 01:19:30 PM 35.3392 -96.6119 91° East 495 570 39,000  Level Fort Worth Center
Sun 01:20:30 PM 35.3358 -96.4439 91° East 495 570 39,000  Level Fort Worth Center
Sun 01:21:30 PM 35.3303 -96.2711 92° East 495 570 39,000  Level Fort Worth Center
Sun 01:22:31 PM 35.3264 -96.1006 92° East 495 570 39,000  Level Fort Worth Center
Sun 01:24:10 PM 35.3194 -95.8178 92° East 484 557 39,000  Level Memphis Center
Sun 01:25:10 PM 35.3144 -95.6444 92° East 492 566 39,000  Level Memphis Center
Sun 01:26:10 PM 35.3111 -95.4739 91° East 498 573 39,000  Level Memphis Center
Sun 01:27:10 PM 35.3056 -95.3031 92° East 498 573 39,000  Level Memphis Center
Sun 01:28:10 PM 35.2997 -95.1322 92° East 498 573 39,000  Level Memphis Center
Sun 01:29:10 PM 35.2939 -94.9589 92° East 498 573 39,000  Level Memphis Center
Sun 01:30:10 PM 35.2875 -94.7856 93° East 498 573 39,000  Level Memphis Center
Sun 01:31:10 PM 35.2789 -94.6122 93° East 504 580 39,000  Level Memphis Center
Sun 01:32:10 PM 35.2742 -94.4417 92° East 509 586 39,000  Level Memphis Center
Sun 01:33:10 PM 35.2672 -94.2708 93° East 509 586 39,000  Level Memphis Center
Sun 01:34:10 PM 35.2603 -94.0950 93° East 509 586 39,000  Level Memphis Center
Sun 01:35:10 PM 35.2528 -93.9219 93° East 509 586 39,000  Level Memphis Center
Sun 01:36:10 PM 35.2450 -93.7486 93° East 509 586 39,000  Level Memphis Center
Sun 01:37:10 PM 35.2369 -93.5781 93° East 509 586 39,000  Level Memphis Center
Sun 01:38:10 PM 35.2269 -93.4022 94° East 509 586 39,000  Level Memphis Center
Sun 01:39:10 PM 35.2189 -93.2114 93° East 498 573 39,000  Level Memphis Center
Sun 01:40:10 PM 35.2122 -93.0433 93° East 508 585 39,000  Level Memphis Center
Sun 01:41:10 PM 35.2033 -92.8628 93° East 513 590 39,000  Level Memphis Center
Sun 01:42:22 PM 35.1886 -92.6489 95° East 526 605 39,000  Level Memphis Center
Sun 01:43:22 PM 35.1814 -92.4758 93° East 526 605 39,000  Level Memphis Center
Sun 01:44:22 PM 35.1694 -92.3028 95° East 519 597 39,000  Level Memphis Center
Sun 01:45:22 PM 35.1617 -92.1275 93° East 519 597 39,000  Level Memphis Center
Sun 01:46:22 PM 35.1517 -91.9544 94° East 519 597 39,000  Level Memphis Center
Sun 01:47:22 PM 35.1369 -91.7817 96° East 519 597 39,000  Level Memphis Center
Sun 01:48:22 PM 35.1264 -91.6086 94° East 519 597 39,000  Level Memphis Center
Sun 01:49:22 PM 35.1175 -91.4358 94° East 519 597 39,000  Level Memphis Center
Sun 01:50:22 PM 35.1103 -91.2811 93° East 514 592 39,000  Level Memphis Center
Sun 01:51:22 PM 35.0989 -91.1058 94° East 519 597 39,000  Level Memphis Center
Sun 01:52:22 PM 35.0853 -90.9331 95° East 519 597 39,000  Level Memphis Center
Sun 01:53:22 PM 35.0714 -90.7428 95° East 514 592 39,000  Level Memphis Center
Sun 01:54:22 PM 35.0614 -90.5678 94° East 514 592 39,000  Level Memphis Center
Sun 01:55:22 PM 35.0469 -90.3953 96° East 519 597 39,000  Level Memphis Center
Sun 01:56:22 PM 35.0344 -90.2228 95° East 519 597 39,000  Level Memphis Center
Sun 01:57:22 PM 35.0236 -90.0503 94° East 519 597 39,000  Level Memphis Center
Sun 01:58:22 PM 35.0044 -89.8753 98° East 519 597 39,000  Level Memphis Center
Sun 01:59:22 PM 34.9786 -89.7208 101° East 519 597 39,000  Level Memphis Center
Sun 02:00:22 PM 34.9547 -89.5464 99° East 524 603 39,000  Level Memphis Center
Sun 02:01:22 PM 34.9264 -89.3794 102° East 511 588 39,000  Level Memphis Center
Sun 02:02:22 PM 34.8975 -89.1925 101° East 505 581 39,000  Level Memphis Center
Sun 02:03:22 PM 34.8708 -89.0231 101° East 510 587 39,000  Level Memphis Center
Sun 02:04:22 PM 34.8458 -88.8464 100° East 510 587 39,000 -200 Level Memphis Center
Sun 02:05:22 PM 34.8186 -88.6775 101° East 510 587 38,600 -700 Descending Memphis Center
Sun 02:06:22 PM 34.7933 -88.5086 100° East 515 593 37,600 -950 Descending Memphis Center
Sun 02:07:22 PM 34.7681 -88.3625 102° East 502 578 36,700 -950 Descending Memphis Center
Sun 02:08:22 PM 34.7422 -88.1936 100° East 502 578 35,700 -1,050 Descending Memphis Center
Sun 02:09:22 PM 34.7117 -88.0100 101° East 505 581 34,600 -1,050 Descending Memphis Center
Sun 02:10:22 PM 34.6875 -87.8417 100° East 505 581 33,600 -800 Descending Memphis Center
Sun 02:11:22 PM 34.6639 -87.7008 101° East 492 566 33,000 -181 Descending Memphis Center
Sun 02:13:41 PM 34.6017 -87.3319 101° East 482 555 33,000  Level Atlanta Center
Sun 02:14:41 PM 34.5706 -87.1719 103° East 482 555 33,000  Level Atlanta Center
Sun 02:15:41 PM 34.5389 -87.0117 103° East 482 555 33,000  Level Atlanta Center
Sun 02:16:41 PM 34.5094 -86.8469 102° East 487 560 33,000 -550 Level Atlanta Center
Sun 02:17:41 PM 34.4775 -86.6872 104° East 487 560 31,900 -1,150 Descending Atlanta Center
Sun 02:18:41 PM 34.4453 -86.5275 104° East 487 560 30,700 -1,250 Descending Atlanta Center
Sun 02:19:41 PM 34.4150 -86.3678 103° East 487 560 29,400 -1,150 Descending Atlanta Center
Sun 02:20:41 PM 34.3847 -86.2086 103° East 487 560 28,400 -1,050 Descending Atlanta Center
Sun 02:21:41 PM 34.3519 -86.0492 104° East 487 560 27,300 -1,650 Descending Atlanta Center
Sun 02:22:41 PM 34.3208 -85.8975 104° East 476 548 25,100 -2,300 Descending Atlanta Center
Sun 02:23:41 PM 34.2919 -85.7358 102° East 462 532 22,700 -2,250 Descending Atlanta Center
Sun 02:24:41 PM 34.2603 -85.5969 105° East 435 501 20,600 -2,100 Descending Atlanta Center
Sun 02:25:41 PM 34.2347 -85.4658 103° East 413 475 18,500 -1,850 Descending Atlanta Center
Sun 02:26:41 PM 34.2089 -85.3375 104° East 398 458 16,900 -1,750 Descending Atlanta Center
Sun 02:27:41 PM 34.1831 -85.2139 104° East 387 445 15,000 -1,700 Descending Atlanta Center
Sun 02:28:41 PM 34.1486 -85.1056 111° Southeast 370 426 13,500 -950 Descending Atlanta Center
Sun 02:29:41 PM 34.0931 -85.0297 131° Southeast 318 366 13,100 -550 Descending Atlanta Center
Sun 02:30:41 PM 34.0433 -84.9664 133° Southeast 293 337 12,400 -1,200 Descending Atlanta Center
Sun 02:31:41 PM 33.9875 -84.8956 134° Southeast 287 330 10,700 -1,550 Descending Atlanta Center
Sun 02:32:41 PM 33.9253 -84.8325 140° Southeast 287 330 9,300 -1,125 Descending Atlanta Center
Sun 02:33:33 PM 33.8500 -84.8333 181° South 245 282 8,600 -1,062 Descending Atlanta TRACON
Sun 02:34:34 PM 33.8000 -84.8333 180° South 227 261 7,300 -1,200 Descending Atlanta TRACON
Sun 02:35:28 PM 33.7333 -84.8333 180° South 230 265 6,300 -1,100 Descending Atlanta TRACON
Sun 02:36:34 PM 33.6667 -84.8167 168° South 226 260 5,100 -650 Descending Atlanta TRACON
Sun 02:37:28 PM 33.6500 -84.7667 112° Southeast 214 246 5,000 -50 Descending Atlanta TRACON
Sun 02:38:34 PM 33.6500 -84.7000 90° East 186 214 5,000 -381 Level Atlanta TRACON
Sun 02:39:34 PM 33.6500 -84.6333 90° East 180 207 4,200 -850 Descending Atlanta TRACON
Sun 02:40:34 PM 33.6500 -84.5667 90° East 167 192 3,300 -900 Descending Atlanta TRACON

Login

Don't have an account? Register now (free) for customized features, flight alerts, and more!